Time;durP1;ratioP1;P1;durP2;ratioP2;P2;SDS_P1;SDS_P2;PMS_P1;PMS_P2;Temp;Humidity;BMP_temperature;BMP_pressure;BME280_temperature;BME280_humidity;BME280_pressure;Samples;Min_cycle;Max_cycle;Signal;HPM_P1;HPM_P2
2022/03/14 00:02:13;;;;;;;;;;;;;;;8.72;22.45;100832.53;4485996;31;33876;-67
2022/03/14 00:04:42;;;;;;;;;;;;;;;8.69;22.33;100832.69;4485599;31;34478;-68
2022/03/14 00:07:11;;;;;;;;;;;;;;;8.67;22.33;100834.56;4490335;31;33967;-66
2022/03/14 00:09:39;;;;;;;;;;;;;;;8.74;22.20;100838.69;4499264;31;33499;-66
2022/03/14 00:12:08;;;;;;;;;;;;;;;8.74;22.36;100846.69;4485378;31;34754;-67
2022/03/14 00:14:36;;;;;;;;;;;;;;;8.68;22.13;100853.19;4488172;31;34195;-66
2022/03/14 00:17:10;;;;;;;;;;;;;;;8.59;23.05;100850.97;4492399;31;34014;-67
2022/03/14 00:19:40;;;;;;;;;;;;;;;8.42;22.73;100849.12;4499414;31;33576;-66
2022/03/14 00:22:08;;;;;;;;;;;;;;;8.57;22.08;100845.72;4491783;31;33737;-67
2022/03/14 00:24:41;;;;;;;;;;;;;;;8.53;21.87;100844.13;4490612;31;34461;-67
2022/03/14 00:27:09;;;;;;;;;;;;;;;8.19;22.46;100844.84;4499248;31;33758;-66
2022/03/14 00:29:37;;;;;;;;;;;;;;;7.36;24.30;100845.97;4494170;31;33849;-66
2022/03/14 00:32:04;;;;;;;;;;;;;;;7.76;23.62;100851.31;4492454;31;35651;-66
2022/03/14 00:34:33;;;;;;;;;;;;;;;7.76;23.62;100853.97;4486275;31;35735;-66
2022/03/14 00:37:01;;;;;;;;;;;;;;;7.92;22.98;100850.53;4486496;31;35196;-67
2022/03/14 00:39:28;;;;;;;;;;;;;;;7.93;23.29;100854.09;4487676;31;33352;-67
2022/03/14 00:41:57;;;;;;;;;;;;;;;7.61;23.96;100848.41;4487842;31;34247;-67
2022/03/14 00:44:24;;;;;;;;;;;;;;;7.14;25.30;100858.47;4492697;31;35165;-67
2022/03/14 00:46:52;;;;;;;;;;;;;;;7.77;23.08;100851.25;4492930;31;34925;-66
2022/03/14 00:49:20;;;;;;;;;;;;;;;7.80;23.40;100847.56;4483443;31;34724;-67
2022/03/14 00:51:47;;;;;;;;;;;;;;;7.65;23.81;100852.66;4494502;31;34307;-69
2022/03/14 00:54:15;;;;;;;;;;;;;;;7.89;23.24;100847.13;4482866;31;34129;-69
2022/03/14 00:56:43;;;;;;;;;;;;;;;7.93;23.00;100854.94;4485354;31;34310;-69
2022/03/14 00:59:10;;;;;;;;;;;;;;;7.64;24.12;100853.59;4484109;31;32891;-69
2022/03/14 01:01:38;;;;;;;;;;;;;;;7.75;23.11;100863.78;4488692;31;34036;-68
2022/03/14 01:04:06;;;;;;;;;;;;;;;7.66;23.50;100859.72;4485478;31;33881;-69
2022/03/14 01:06:34;;;;;;;;;;;;;;;7.83;23.53;100863.41;4482926;31;33409;-69
2022/03/14 01:09:02;;;;;;;;;;;;;;;7.30;24.06;100856.88;4483362;31;33522;-68
2022/03/14 01:11:30;;;;;;;;;;;;;;;7.87;23.06;100857.87;4485583;31;34049;-66
2022/03/14 01:13:58;;;;;;;;;;;;;;;7.69;23.80;100858.72;4480406;31;35203;-67
2022/03/14 01:16:25;;;;;;;;;;;;;;;7.93;23.28;100862.06;4485362;31;33959;-66
2022/03/14 01:18:54;;;;;;;;;;;;;;;7.56;24.58;100869.06;4487750;31;33216;-66
2022/03/14 01:21:21;;;;;;;;;;;;;;;7.57;24.61;100862.78;4492995;31;32843;-66
2022/03/14 01:23:49;;;;;;;;;;;;;;;7.79;24.11;100869.81;4493367;31;34136;-67
2022/03/14 01:26:17;;;;;;;;;;;;;;;7.87;23.17;100878.34;4485279;31;34138;-67
2022/03/14 01:28:45;;;;;;;;;;;;;;;7.75;23.92;100870.91;4485790;31;33700;-67
2022/03/14 01:31:12;;;;;;;;;;;;;;;7.68;23.80;100873.84;4484142;31;34934;-67
2022/03/14 01:33:40;;;;;;;;;;;;;;;7.81;23.27;100870.63;4488553;31;34817;-67
2022/03/14 01:36:09;;;;;;;;;;;;;;;7.87;23.42;100862.34;4481238;31;33725;-68
2022/03/14 01:38:37;;;;;;;;;;;;;;;7.87;23.83;100871.22;4489298;31;33206;-67
2022/03/14 01:41:04;;;;;;;;;;;;;;;8.02;23.45;100869.62;4491005;31;35172;-67
2022/03/14 01:43:32;;;;;;;;;;;;;;;8.09;23.47;100868.44;4492178;31;34040;-67
2022/03/14 01:46:00;;;;;;;;;;;;;;;7.82;23.87;100877.69;4484062;31;34205;-67
2022/03/14 01:48:32;;;;;;;;;;;;;;;7.58;23.89;100877.00;4493255;31;33516;-67
2022/03/14 01:51:00;;;;;;;;;;;;;;;7.58;23.98;100882.31;4491144;31;34238;-67
2022/03/14 01:53:28;;;;;;;;;;;;;;;7.58;24.36;100883.19;4494759;31;35221;-67
2022/03/14 01:55:56;;;;;;;;;;;;;;;7.69;23.68;100883.56;4476547;31;33233;-68
2022/03/14 01:58:24;;;;;;;;;;;;;;;7.51;23.95;100887.03;4488279;31;33219;-65
2022/03/14 02:00:52;;;;;;;;;;;;;;;7.42;24.17;100892.78;4490282;31;34936;-65
2022/03/14 02:03:20;;;;;;;;;;;;;;;7.37;23.99;100884.13;4484193;31;34496;-68
2022/03/14 02:05:48;;;;;;;;;;;;;;;7.28;24.40;100895.16;4492804;31;35593;-66
2022/03/14 02:08:16;;;;;;;;;;;;;;;7.00;24.86;100894.53;4482729;31;33084;-68
2022/03/14 02:10:46;;;;;;;;;;;;;;;7.08;24.56;100893.34;4490224;31;35275;-65
2022/03/14 02:13:17;;;;;;;;;;;;;;;6.95;24.91;100903.62;4489332;31;35693;-66
2022/03/14 02:15:46;;;;;;;;;;;;;;;6.92;25.07;100895.78;4485051;31;34562;-65
2022/03/14 02:18:14;;;;;;;;;;;;;;;6.95;25.06;100896.50;4496346;31;33253;-65
2022/03/14 02:20:41;;;;;;;;;;;;;;;7.00;24.95;100901.66;4490563;31;34070;-65
2022/03/14 02:23:10;;;;;;;;;;;;;;;7.04;24.86;100905.06;4490597;31;34206;-65
2022/03/14 02:25:46;;;;;;;;;;;;;;;6.92;25.12;100904.63;4493388;31;34480;-65
2022/03/14 02:28:15;;;;;;;;;;;;;;;6.91;25.39;100907.38;4488740;31;33381;-65
2022/03/14 02:30:42;;;;;;;;;;;;;;;6.78;24.84;100909.66;4483630;31;33916;-67
2022/03/14 02:33:11;;;;;;;;;;;;;;;6.91;25.14;100913.56;4490937;31;35151;-65
2022/03/14 02:35:39;;;;;;;;;;;;;;;6.98;24.77;100907.03;4486012;31;34052;-66
2022/03/14 02:38:09;;;;;;;;;;;;;;;6.99;24.67;100906.09;4497439;31;33266;-65
2022/03/14 02:40:39;;;;;;;;;;;;;;;6.98;24.70;100906.19;4492167;31;34083;-65
2022/03/14 02:43:06;;;;;;;;;;;;;;;6.94;24.85;100917.88;4483725;31;35401;-66
2022/03/14 02:45:34;;;;;;;;;;;;;;;6.92;25.00;100917.06;4485626;31;34268;-67
2022/03/14 02:48:02;;;;;;;;;;;;;;;6.92;24.86;100906.44;4485129;31;33228;-65
2022/03/14 02:50:30;;;;;;;;;;;;;;;6.53;25.32;100913.28;4495137;31;34895;-66
2022/03/14 02:52:59;;;;;;;;;;;;;;;6.84;24.75;100920.06;4484295;31;34157;-66
2022/03/14 02:55:28;;;;;;;;;;;;;;;6.70;24.90;100909.09;4487547;31;34254;-67
2022/03/14 02:57:58;;;;;;;;;;;;;;;6.31;25.77;100917.72;4486110;31;33614;-68
2022/03/14 03:00:26;;;;;;;;;;;;;;;5.97;26.29;100926.09;4492858;31;34204;-65
2022/03/14 03:02:55;;;;;;;;;;;;;;;6.51;25.22;100919.59;4486107;31;34271;-64
2022/03/14 03:05:23;;;;;;;;;;;;;;;6.43;25.51;100921.69;4490846;31;33191;-65
2022/03/14 03:07:54;;;;;;;;;;;;;;;6.26;26.18;100933.84;4493689;31;33438;-64
2022/03/14 03:10:23;;;;;;;;;;;;;;;6.39;25.65;100928.94;4492524;31;34205;-65
2022/03/14 03:12:52;;;;;;;;;;;;;;;6.38;25.52;100931.63;4484804;31;34257;-65
2022/03/14 03:15:24;;;;;;;;;;;;;;;6.26;25.93;100936.53;4483741;31;35042;-65
2022/03/14 03:17:54;;;;;;;;;;;;;;;5.95;26.35;100942.09;4485815;31;32778;-66
2022/03/14 03:20:25;;;;;;;;;;;;;;;5.81;26.79;100950.53;4483451;31;34000;-66
2022/03/14 03:22:54;;;;;;;;;;;;;;;5.91;26.33;100945.75;4482165;31;33179;-66
2022/03/14 03:25:23;;;;;;;;;;;;;;;5.56;26.87;100944.38;4480258;31;34074;-64
2022/03/14 03:27:53;;;;;;;;;;;;;;;5.61;26.80;100945.91;4489937;31;33234;-67
2022/03/14 03:30:24;;;;;;;;;;;;;;;5.90;26.47;100949.31;4482295;31;35804;-66
2022/03/14 03:32:53;;;;;;;;;;;;;;;5.84;26.54;100949.53;4482485;31;35660;-64
2022/03/14 03:35:22;;;;;;;;;;;;;;;5.94;26.30;100952.78;4488012;31;32961;-65
2022/03/14 03:37:52;;;;;;;;;;;;;;;6.16;26.38;100956.38;4481445;31;33451;-65
2022/03/14 03:40:22;;;;;;;;;;;;;;;6.23;26.39;100951.72;4478380;31;32975;-65
2022/03/14 03:42:54;;;;;;;;;;;;;;;6.25;26.02;100957.81;4476860;32;33288;-65
2022/03/14 03:45:23;;;;;;;;;;;;;;;5.90;26.44;100951.13;4473199;31;34032;-66
2022/03/14 03:47:54;;;;;;;;;;;;;;;5.93;26.55;100954.56;4477394;32;32556;-65
2022/03/14 03:50:23;;;;;;;;;;;;;;;6.24;26.17;100962.28;4477572;31;34105;-65
2022/03/14 03:52:52;;;;;;;;;;;;;;;6.15;26.54;100959.09;4469314;32;33145;-67
2022/03/14 03:55:26;;;;;;;;;;;;;;;6.06;26.55;100960.31;4473696;32;34471;-64
2022/03/14 03:57:58;;;;;;;;;;;;;;;5.94;26.84;100960.75;4475027;32;33015;-67
2022/03/14 04:00:27;;;;;;;;;;;;;;;5.83;26.92;100969.94;4476991;32;34162;-64
2022/03/14 04:02:55;;;;;;;;;;;;;;;6.03;26.53;100957.75;4475795;31;33938;-65
2022/03/14 04:05:25;;;;;;;;;;;;;;;5.95;27.02;100965.16;4478642;32;32946;-65
2022/03/14 04:07:57;;;;;;;;;;;;;;;6.20;26.77;100967.78;4475557;31;33957;-66
2022/03/14 04:10:28;;;;;;;;;;;;;;;6.35;26.36;100963.66;4472841;32;35007;-65
2022/03/14 04:13:03;;;;;;;;;;;;;;;6.35;26.80;100955.69;4478465;31;34236;-65
2022/03/14 04:15:42;;;;;;;;;;;;;;;6.36;27.02;100955.66;4474540;32;33721;-65
2022/03/14 04:18:11;;;;;;;;;;;;;;;6.54;26.64;100951.41;4473822;31;33621;-65
2022/03/14 04:20:41;;;;;;;;;;;;;;;6.59;26.39;100956.56;4478085;32;34117;-65
2022/03/14 04:23:09;;;;;;;;;;;;;;;6.58;26.23;100957.47;4472694;32;33765;-66
2022/03/14 04:25:38;;;;;;;;;;;;;;;6.46;26.50;100964.12;4470114;32;32928;-65
2022/03/14 04:28:08;;;;;;;;;;;;;;;6.50;26.80;100968.41;4471012;32;32528;-65
2022/03/14 04:30:36;;;;;;;;;;;;;;;6.57;26.87;100971.69;4476173;32;33764;-65
2022/03/14 04:33:08;;;;;;;;;;;;;;;6.51;26.26;100973.66;4476220;32;34272;-66
2022/03/14 04:35:37;;;;;;;;;;;;;;;6.69;26.12;100979.22;4472243;32;33763;-66
2022/03/14 04:38:07;;;;;;;;;;;;;;;6.75;25.61;100977.16;4480330;32;33203;-65
2022/03/14 04:40:36;;;;;;;;;;;;;;;6.74;25.76;100977.22;4475927;31;32873;-64
2022/03/14 04:43:07;;;;;;;;;;;;;;;6.70;25.82;100983.59;4473919;32;33256;-65
2022/03/14 04:45:44;;;;;;;;;;;;;;;6.64;25.78;100990.00;4478639;31;34693;-64
2022/03/14 04:48:12;;;;;;;;;;;;;;;6.68;25.47;100991.66;4481737;32;33413;-64
2022/03/14 04:50:42;;;;;;;;;;;;;;;6.61;26.12;100986.59;4476341;31;33990;-64
2022/03/14 04:53:10;;;;;;;;;;;;;;;6.38;26.44;100996.31;4475991;32;34441;-65
2022/03/14 04:55:40;;;;;;;;;;;;;;;6.49;26.84;100996.81;4469254;32;35889;-66
2022/03/14 04:58:14;;;;;;;;;;;;;;;6.56;26.89;101004.56;4472073;31;34351;-64
2022/03/14 05:00:42;;;;;;;;;;;;;;;6.53;27.01;100997.56;4475282;32;34103;-67
2022/03/14 05:03:14;;;;;;;;;;;;;;;6.45;27.07;100999.63;4470572;32;34896;-67
2022/03/14 05:05:42;;;;;;;;;;;;;;;6.32;27.05;101004.53;4467803;32;34264;-65
2022/03/14 05:08:12;;;;;;;;;;;;;;;6.54;26.80;101009.91;4471080;32;34170;-65
2022/03/14 05:10:41;;;;;;;;;;;;;;;6.70;26.44;101010.19;4470829;32;35417;-66
2022/03/14 05:13:11;;;;;;;;;;;;;;;6.33;27.55;101008.09;4475770;32;36377;-65
2022/03/14 05:15:40;;;;;;;;;;;;;;;6.69;26.87;101005.81;4475851;32;33953;-64
2022/03/14 05:18:09;;;;;;;;;;;;;;;6.85;26.56;101006.09;4478156;31;33910;-64
2022/03/14 05:20:39;;;;;;;;;;;;;;;6.89;26.46;101010.34;4473851;32;35012;-64
2022/03/14 05:23:07;;;;;;;;;;;;;;;7.13;26.22;101017.38;4466349;32;35111;-65
2022/03/14 05:25:35;;;;;;;;;;;;;;;7.14;26.55;101016.44;4469948;32;35030;-65
2022/03/14 05:28:04;;;;;;;;;;;;;;;6.88;27.17;101009.50;4469585;31;33547;-64
2022/03/14 05:30:36;;;;;;;;;;;;;;;7.04;26.68;101011.56;4474472;32;33805;-65
2022/03/14 05:33:06;;;;;;;;;;;;;;;6.95;27.18;101026.94;4480959;32;34680;-64
2022/03/14 05:35:35;;;;;;;;;;;;;;;7.20;26.83;101026.84;4477602;31;34074;-64
2022/03/14 05:38:04;;;;;;;;;;;;;;;7.44;26.31;101029.41;4473763;32;34329;-67
2022/03/14 05:40:33;;;;;;;;;;;;;;;7.28;26.68;101030.97;4472575;31;35216;-65
2022/03/14 05:43:08;;;;;;;;;;;;;;;7.75;25.69;101034.34;4481763;31;35214;-64
2022/03/14 05:45:37;;;;;;;;;;;;;;;7.63;26.51;101042.84;4489771;31;35258;-64
2022/03/14 05:48:07;;;;;;;;;;;;;;;7.81;25.91;101043.87;4482507;31;32351;-64
2022/03/14 05:50:37;;;;;;;;;;;;;;;7.88;25.88;101045.34;4487942;31;33743;-67
2022/03/14 05:53:06;;;;;;;;;;;;;;;7.99;25.50;101048.41;4490219;31;34231;-65
2022/03/14 05:55:36;;;;;;;;;;;;;;;7.55;25.93;101048.50;4492816;31;33219;-66
2022/03/14 05:58:06;;;;;;;;;;;;;;;8.07;25.88;101056.94;4483792;31;34503;-68
2022/03/14 06:00:36;;;;;;;;;;;;;;;8.65;25.03;101053.50;4492069;31;32848;-66
2022/03/14 06:03:05;;;;;;;;;;;;;;;8.50;25.35;101068.41;4475237;31;33149;-65
2022/03/14 06:05:35;;;;;;;;;;;;;;;8.67;24.79;101070.34;4486156;31;33942;-67
2022/03/14 06:08:04;;;;;;;;;;;;;;;8.79;24.98;101075.06;4483555;31;33501;-68
2022/03/14 06:10:34;;;;;;;;;;;;;;;9.15;24.84;101068.97;4490541;31;35159;-65
2022/03/14 06:13:03;;;;;;;;;;;;;;;9.54;24.20;101071.50;4483131;31;35537;-64
2022/03/14 06:15:32;;;;;;;;;;;;;;;9.28;24.85;101078.13;4493713;31;33760;-66
2022/03/14 06:18:05;;;;;;;;;;;;;;;9.22;25.12;101081.09;4492260;31;32793;-66
2022/03/14 06:20:43;;;;;;;;;;;;;;;9.28;23.83;101078.13;4494530;31;34234;-66
2022/03/14 06:23:16;;;;;;;;;;;;;;;8.52;25.30;101101.22;4482124;31;35570;-67
2022/03/14 06:25:47;;;;;;;;;;;;;;;9.31;24.50;101087.81;4489734;31;33178;-66
2022/03/14 06:28:16;;;;;;;;;;;;;;;9.77;23.76;101085.53;4497914;31;34645;-66
2022/03/14 06:30:46;;;;;;;;;;;;;;;9.63;23.38;101104.94;4487560;31;33110;-67
2022/03/14 06:33:16;;;;;;;;;;;;;;;10.02;22.90;101093.19;4484397;31;33135;-67
2022/03/14 06:35:46;;;;;;;;;;;;;;;9.87;23.64;101105.53;4485281;31;33448;-66
2022/03/14 06:38:15;;;;;;;;;;;;;;;9.71;23.59;101100.06;4489444;31;33671;-66
2022/03/14 06:40:44;;;;;;;;;;;;;;;9.73;23.24;101105.34;4486379;31;33058;-66
2022/03/14 06:43:13;;;;;;;;;;;;;;;10.03;23.02;101105.63;4485549;31;32798;-66
2022/03/14 06:45:41;;;;;;;;;;;;;;;9.73;22.84;101102.69;4484609;31;34176;-66
2022/03/14 06:48:11;;;;;;;;;;;;;;;9.54;23.16;101100.91;4483450;31;32344;-65
2022/03/14 06:50:40;;;;;;;;;;;;;;;9.72;22.99;101098.25;4485559;31;35234;-65
2022/03/14 06:53:09;;;;;;;;;;;;;;;9.29;22.97;101105.69;4484173;31;35943;-65
2022/03/14 06:55:38;;;;;;;;;;;;;;;9.47;24.39;101106.59;4482959;31;34324;-65
2022/03/14 06:58:06;;;;;;;;;;;;;;;9.80;22.89;101117.47;4483898;31;34406;-65
2022/03/14 07:00:35;;;;;;;;;;;;;;;9.84;23.15;101108.34;4482475;31;34192;-64
2022/03/14 07:03:03;;;;;;;;;;;;;;;9.69;24.01;101111.78;4490107;31;35039;-66
2022/03/14 07:05:32;;;;;;;;;;;;;;;10.17;22.04;101112.94;4487386;31;34503;-66
2022/03/14 07:08:04;;;;;;;;;;;;;;;9.71;22.62;101115.25;4487724;31;31542;-65
2022/03/14 07:10:33;;;;;;;;;;;;;;;10.08;22.35;101116.97;4485970;31;34164;-65
2022/03/14 07:13:01;;;;;;;;;;;;;;;10.02;22.31;101125.28;4490640;31;34545;-65
2022/03/14 07:15:32;;;;;;;;;;;;;;;10.56;21.53;101118.06;4494337;31;33167;-65
2022/03/14 07:18:04;;;;;;;;;;;;;;;10.28;22.46;101110.59;4486872;31;33531;-65
2022/03/14 07:20:33;;;;;;;;;;;;;;;9.87;22.65;101110.00;4492460;31;34309;-64
2022/03/14 07:23:03;;;;;;;;;;;;;;;10.13;21.65;101111.34;4498305;31;33219;-64
2022/03/14 07:25:34;;;;;;;;;;;;;;;10.17;22.53;101110.25;4498418;31;34027;-64
2022/03/14 07:28:05;;;;;;;;;;;;;;;9.80;22.26;101118.34;4487814;31;33153;-65
2022/03/14 07:30:35;;;;;;;;;;;;;;;10.30;22.48;101116.72;4486392;31;34183;-65
2022/03/14 07:33:05;;;;;;;;;;;;;;;10.48;22.20;101112.25;4492780;31;33356;-66
2022/03/14 07:35:35;;;;;;;;;;;;;;;10.46;22.58;101115.00;4497457;31;32986;-66
2022/03/14 07:38:07;;;;;;;;;;;;;;;10.65;21.65;101120.22;4488851;31;32300;-65
2022/03/14 07:40:37;;;;;;;;;;;;;;;10.08;21.65;101122.31;4488936;31;32878;-66
2022/03/14 07:43:07;;;;;;;;;;;;;;;10.71;21.68;101114.56;4495566;31;32731;-65
2022/03/14 07:45:35;;;;;;;;;;;;;;;11.15;21.45;101124.66;4488104;31;34047;-65
2022/03/14 07:48:06;;;;;;;;;;;;;;;11.01;20.96;101121.00;4493100;31;33189;-65
2022/03/14 07:50:35;;;;;;;;;;;;;;;10.45;20.77;101128.47;4484314;31;34299;-66
2022/03/14 07:53:06;;;;;;;;;;;;;;;11.26;20.55;101117.84;4486596;31;35456;-66
2022/03/14 07:55:34;;;;;;;;;;;;;;;12.72;18.79;101118.22;4482525;31;33222;-66
2022/03/14 07:58:02;;;;;;;;;;;;;;;12.76;18.08;101115.25;4484942;31;34433;-66
2022/03/14 08:00:30;;;;;;;;;;;;;;;11.75;18.16;101133.81;4481794;31;34007;-66
2022/03/14 08:02:59;;;;;;;;;;;;;;;12.21;18.04;101134.72;4469171;32;35492;-66
2022/03/14 08:05:27;;;;;;;;;;;;;;;12.11;17.94;101128.19;4480437;31;34302;-65
2022/03/14 08:07:56;;;;;;;;;;;;;;;12.25;18.25;101122.84;4487336;31;33317;-65
2022/03/14 08:10:24;;;;;;;;;;;;;;;11.02;19.04;101130.78;4491175;31;32818;-66
2022/03/14 08:12:56;;;;;;;;;;;;;;;11.72;18.50;101134.87;4487583;31;34347;-65
2022/03/14 08:15:24;;;;;;;;;;;;;;;11.27;18.94;101138.31;4491529;31;35612;-65
2022/03/14 08:17:54;;;;;;;;;;;;;;;11.49;19.34;101138.00;4481246;31;33237;-65
2022/03/14 08:20:23;;;;;;;;;;;;;;;11.64;18.53;101137.12;4482354;31;35289;-65
2022/03/14 08:22:52;;;;;;;;;;;;;;;12.00;18.41;101134.16;4484818;31;34153;-67
2022/03/14 08:25:21;;;;;;;;;;;;;;;11.29;18.83;101145.34;4490171;31;35742;-65
2022/03/14 08:27:51;;;;;;;;;;;;;;;11.69;18.67;101142.25;4484937;31;33277;-66
2022/03/14 08:30:21;;;;;;;;;;;;;;;10.95;19.30;101149.88;4494629;31;35051;-65
2022/03/14 08:32:50;;;;;;;;;;;;;;;10.83;19.83;101147.00;4485321;31;35384;-66
2022/03/14 08:35:20;;;;;;;;;;;;;;;11.25;19.22;101150.97;4484121;31;34744;-66
2022/03/14 08:37:49;;;;;;;;;;;;;;;11.97;18.79;101149.56;4490192;31;33830;-66
2022/03/14 08:40:20;;;;;;;;;;;;;;;11.68;18.94;101144.03;4486533;31;35310;-66
2022/03/14 08:42:51;;;;;;;;;;;;;;;11.42;19.30;101150.88;4492346;31;35371;-65
2022/03/14 08:45:19;;;;;;;;;;;;;;;10.38;20.06;101156.50;4489902;31;33050;-66
2022/03/14 08:47:48;;;;;;;;;;;;;;;10.52;20.10;101155.78;4486035;31;33202;-66
2022/03/14 08:50:17;;;;;;;;;;;;;;;10.65;20.34;101151.50;4487132;31;32891;-66
2022/03/14 08:52:46;;;;;;;;;;;;;;;11.56;19.70;101150.12;4485164;31;35356;-66
2022/03/14 08:55:17;;;;;;;;;;;;;;;12.52;18.52;101147.19;4482296;31;33586;-66
2022/03/14 08:57:46;;;;;;;;;;;;;;;11.46;19.13;101151.56;4482194;31;33867;-66
2022/03/14 09:00:15;;;;;;;;;;;;;;;11.18;19.67;101153.13;4496095;31;32677;-66
2022/03/14 09:02:45;;;;;;;;;;;;;;;11.84;19.16;101150.28;4487297;31;34949;-65
2022/03/14 09:05:14;;;;;;;;;;;;;;;12.19;18.41;101150.03;4498226;31;33790;-66
2022/03/14 09:07:44;;;;;;;;;;;;;;;11.53;19.08;101152.97;4490313;31;31947;-66
2022/03/14 09:10:14;;;;;;;;;;;;;;;11.77;18.95;101148.03;4483696;31;32910;-66
2022/03/14 09:12:48;;;;;;;;;;;;;;;12.20;18.95;101151.78;4485592;31;34151;-66
2022/03/14 09:15:20;;;;;;;;;;;;;;;12.95;17.96;101155.28;4490194;31;32959;-66
2022/03/14 09:17:59;;;;;;;;;;;;;;;12.71;17.99;101156.78;4483261;31;33406;-66
2022/03/14 09:20:29;;;;;;;;;;;;;;;12.81;18.21;101155.28;4496061;31;33858;-66
2022/03/14 09:22:59;;;;;;;;;;;;;;;12.89;17.40;101155.66;4491051;31;33175;-66
2022/03/14 09:25:34;;;;;;;;;;;;;;;12.17;18.29;101146.59;4492098;31;34166;-65
2022/03/14 09:28:09;;;;;;;;;;;;;;;12.19;19.18;101149.19;4493835;31;33231;-65
2022/03/14 09:30:38;;;;;;;;;;;;;;;11.56;18.81;101152.81;4491378;31;34298;-65
2022/03/14 09:33:07;;;;;;;;;;;;;;;11.94;18.70;101147.06;4481898;31;34271;-66
2022/03/14 09:35:35;;;;;;;;;;;;;;;12.37;18.60;101152.59;4483221;31;34950;-66
2022/03/14 09:38:03;;;;;;;;;;;;;;;11.73;19.24;101159.88;4490378;31;33461;-66
2022/03/14 09:40:32;;;;;;;;;;;;;;;12.55;18.87;101154.16;4483718;31;34135;-66
2022/03/14 09:43:00;;;;;;;;;;;;;;;12.18;18.96;101156.38;4486380;31;33806;-66
2022/03/14 09:45:28;;;;;;;;;;;;;;;13.00;18.54;101155.87;4489290;31;33913;-66
2022/03/14 09:47:58;;;;;;;;;;;;;;;12.56;18.91;101154.09;4484473;31;33244;-66
2022/03/14 09:50:26;;;;;;;;;;;;;;;13.32;18.56;101150.28;4489950;31;34581;-65
2022/03/14 09:52:55;;;;;;;;;;;;;;;13.25;18.49;101154.34;4483298;31;34227;-66
2022/03/14 09:55:24;;;;;;;;;;;;;;;13.18;18.40;101156.50;4494916;31;33991;-66
2022/03/14 09:57:53;;;;;;;;;;;;;;;13.78;18.11;101149.16;4494773;31;32636;-66
2022/03/14 10:00:21;;;;;;;;;;;;;;;13.40;17.97;101155.19;4483387;31;34102;-66
2022/03/14 10:02:49;;;;;;;;;;;;;;;14.85;17.05;101153.50;4485535;31;32972;-66
2022/03/14 10:05:18;;;;;;;;;;;;;;;15.14;16.44;101143.34;4494863;31;34257;-66
2022/03/14 10:07:46;;;;;;;;;;;;;;;13.92;17.22;101143.69;4488249;31;32007;-67
2022/03/14 10:10:17;;;;;;;;;;;;;;;13.64;17.65;101148.22;4485303;31;35052;-66
2022/03/14 10:12:53;;;;;;;;;;;;;;;15.01;16.51;101139.78;4493716;31;33921;-66
2022/03/14 10:15:27;;;;;;;;;;;;;;;14.44;16.93;101140.16;4493108;31;34379;-67
2022/03/14 10:17:57;;;;;;;;;;;;;;;14.82;16.40;101142.91;4493265;31;33276;-66
2022/03/14 10:20:25;;;;;;;;;;;;;;;14.50;16.25;101137.06;4483653;31;34113;-67
2022/03/14 10:22:54;;;;;;;;;;;;;;;14.44;16.74;101127.59;4482685;31;35058;-66
2022/03/14 10:25:22;;;;;;;;;;;;;;;13.34;17.71;101145.69;4480411;31;33319;-66
2022/03/14 10:27:54;;;;;;;;;;;;;;;13.45;17.52;101155.75;4484621;31;33068;-66
2022/03/14 10:30:24;;;;;;;;;;;;;;;13.91;17.51;101142.00;4483389;31;35188;-67
2022/03/14 10:33:08;;;;;;;;;;;;;;;14.20;17.26;101140.88;4490786;31;34261;-67
2022/03/14 10:35:37;;;;;;;;;;;;;;;14.10;17.29;101145.16;4488138;31;35458;-67
2022/03/14 10:38:06;;;;;;;;;;;;;;;13.34;18.21;101142.13;4493165;31;33514;-66
2022/03/14 10:40:41;;;;;;;;;;;;;;;12.87;17.93;101156.69;4491393;31;33939;-67
2022/03/14 10:43:30;;;;;;;;;;;;;;;14.76;16.53;101145.19;4484331;31;34159;-65
2022/03/14 10:46:00;;;;;;;;;;;;;;;15.04;16.47;101141.41;4483659;31;33829;-65
2022/03/14 10:48:38;;;;;;;;;;;;;;;14.37;16.89;101147.81;4486789;31;33467;-64
2022/03/14 10:51:08;;;;;;;;;;;;;;;14.62;16.59;101133.53;4486216;31;34912;-66
2022/03/14 10:53:40;;;;;;;;;;;;;;;14.15;16.98;101151.09;4490757;31;33319;-65
2022/03/14 10:56:08;;;;;;;;;;;;;;;13.23;17.48;101143.66;4485002;31;35253;-66
2022/03/14 10:58:38;;;;;;;;;;;;;;;14.13;17.22;101146.81;4469613;31;33064;-66
2022/03/14 11:01:07;;;;;;;;;;;;;;;14.51;17.14;101140.62;4481530;31;34742;-65
2022/03/14 11:03:42;;;;;;;;;;;;;;;14.88;16.65;101141.63;4484438;31;35353;-65
2022/03/14 11:06:13;;;;;;;;;;;;;;;14.80;16.49;101147.56;4487782;31;34265;-66
2022/03/14 11:08:44;;;;;;;;;;;;;;;15.16;16.21;101150.47;4494662;31;34399;-66
2022/03/14 11:11:14;;;;;;;;;;;;;;;14.72;17.03;101146.38;4480697;31;35208;-65
2022/03/14 11:13:51;;;;;;;;;;;;;;;14.12;17.40;101129.75;4482472;31;33366;-65
2022/03/14 11:16:20;;;;;;;;;;;;;;;14.89;16.72;101128.06;4482515;31;33231;-64
2022/03/14 11:18:51;;;;;;;;;;;;;;;15.23;16.45;101130.16;4472462;31;32009;-65
2022/03/14 11:21:24;;;;;;;;;;;;;;;13.98;16.96;101140.59;4486406;31;32375;-64
2022/03/14 11:23:55;;;;;;;;;;;;;;;14.33;17.08;101134.66;4485599;31;35751;-65
2022/03/14 11:26:31;;;;;;;;;;;;;;;12.79;18.08;101138.37;4482516;31;35035;-65
2022/03/14 11:29:01;;;;;;;;;;;;;;;13.83;17.55;101130.84;4486586;31;32281;-65
2022/03/14 11:31:31;;;;;;;;;;;;;;;13.24;18.27;101128.37;4487852;31;32741;-65
2022/03/14 11:34:00;;;;;;;;;;;;;;;13.33;18.12;101126.97;4474397;31;34293;-66
2022/03/14 11:36:31;;;;;;;;;;;;;;;13.92;17.72;101127.56;4486963;31;33757;-66
2022/03/14 11:39:12;;;;;;;;;;;;;;;14.19;17.91;101112.25;4473507;31;32230;-63
2022/03/14 11:41:44;;;;;;;;;;;;;;;13.26;18.65;101124.69;4484795;31;32655;-64
2022/03/14 11:44:15;;;;;;;;;;;;;;;13.18;18.85;101118.87;4486245;31;33379;-66
2022/03/14 11:46:48;;;;;;;;;;;;;;;14.18;18.11;101112.34;4488718;31;32853;-64
2022/03/14 11:49:30;;;;;;;;;;;;;;;13.98;18.11;101105.63;4484638;31;33308;-64
2022/03/14 11:52:10;;;;;;;;;;;;;;;14.63;17.55;101105.63;4488436;31;35730;-65
2022/03/14 11:54:51;;;;;;;;;;;;;;;14.84;17.47;101111.34;4485426;31;32971;-65
2022/03/14 11:57:41;;;;;;;;;;;;;;;14.68;17.49;101090.00;4491527;31;34250;-64
2022/03/14 12:00:32;;;;;;;;;;;;;;;14.20;17.97;101111.25;4488413;31;33029;-65
2022/03/14 12:03:10;;;;;;;;;;;;;;;13.65;18.31;101108.72;4484087;31;33981;-63
2022/03/14 12:05:47;;;;;;;;;;;;;;;14.37;17.95;101110.09;4483250;31;33173;-64
2022/03/14 12:08:23;;;;;;;;;;;;;;;13.82;18.53;101103.09;4486528;31;34904;-64
2022/03/14 12:11:14;;;;;;;;;;;;;;;14.41;17.86;101098.16;4491026;31;34282;-64
2022/03/14 12:13:50;;;;;;;;;;;;;;;14.88;17.76;101095.81;4481444;31;34060;-64
2022/03/14 12:16:38;;;;;;;;;;;;;;;14.37;18.22;101098.47;4483803;31;34306;-63
2022/03/14 12:19:30;;;;;;;;;;;;;;;14.17;18.62;101089.94;4484998;31;33921;-64
2022/03/14 12:22:04;;;;;;;;;;;;;;;13.47;18.93;101100.03;4483105;31;32110;-64
2022/03/14 12:24:34;;;;;;;;;;;;;;;14.20;18.58;101102.34;4485194;31;33181;-64
2022/03/14 12:27:14;;;;;;;;;;;;;;;14.14;18.06;101089.28;4482917;31;32957;-65
2022/03/14 12:29:47;;;;;;;;;;;;;;;15.08;17.93;101084.44;4491654;31;35158;-63
2022/03/14 12:32:37;;;;;;;;;;;;;;;15.21;17.61;101078.16;4481728;31;33534;-63
2022/03/14 12:35:22;;;;;;;;;;;;;;;14.38;17.86;101074.13;4494408;31;33943;-66
2022/03/14 12:37:54;;;;;;;;;;;;;;;14.57;18.09;101080.94;4485497;31;35039;-65
2022/03/14 12:40:22;;;;;;;;;;;;;;;14.99;17.88;101084.25;4484995;31;34748;-65
2022/03/14 12:42:51;;;;;;;;;;;;;;;15.87;17.15;101081.41;4488118;31;33731;-65
2022/03/14 12:45:20;;;;;;;;;;;;;;;15.70;17.04;101083.53;4486070;31;34033;-64
2022/03/14 12:47:57;;;;;;;;;;;;;;;15.90;17.09;101070.38;4497128;31;33063;-64
2022/03/14 12:50:42;;;;;;;;;;;;;;;14.72;17.69;101079.00;4496580;31;34749;-65
2022/03/14 12:53:18;;;;;;;;;;;;;;;15.01;17.75;101077.78;4498466;31;33243;-65
2022/03/14 12:55:49;;;;;;;;;;;;;;;15.44;17.43;101068.38;4487404;31;34075;-63
2022/03/14 12:58:27;;;;;;;;;;;;;;;14.64;18.08;101077.72;4491504;31;35522;-64
2022/03/14 13:00:55;;;;;;;;;;;;;;;13.95;18.85;101069.00;4484235;31;34586;-66